sensor_id;sensor_type;location;lat;lon;timestamp;pressure;altitude;pressure_sealevel;temperature;humidity
49102;BME280;34913;47.520;19.186;2022-11-20T00:01:06;99624.81;;;1.65;85.51
49102;BME280;34913;47.520;19.186;2022-11-20T00:03:32;99621.03;;;1.71;85.70
49102;BME280;34913;47.520;19.186;2022-11-20T00:06:09;99615.06;;;1.52;85.21
49102;BME280;34913;47.520;19.186;2022-11-20T00:08:34;99614.47;;;1.47;85.40
49102;BME280;34913;47.520;19.186;2022-11-20T00:11:08;99615.69;;;1.39;85.48
49102;BME280;34913;47.520;19.186;2022-11-20T00:13:34;99614.69;;;1.42;85.06
49102;BME280;34913;47.520;19.186;2022-11-20T00:16:02;99606.78;;;1.26;84.78
49102;BME280;34913;47.520;19.186;2022-11-20T00:18:28;99606.47;;;1.15;85.16
49102;BME280;34913;47.520;19.186;2022-11-20T00:20:53;99617.00;;;1.14;86.55
49102;BME280;34913;47.520;19.186;2022-11-20T00:23:19;99620.56;;;1.13;87.25
49102;BME280;34913;47.520;19.186;2022-11-20T00:25:44;99612.56;;;1.16;87.89
49102;BME280;34913;47.520;19.186;2022-11-20T00:28:10;99627.38;;;1.15;88.05
49102;BME280;34913;47.520;19.186;2022-11-20T00:30:35;99654.38;;;1.16;88.40
49102;BME280;34913;47.520;19.186;2022-11-20T00:33:01;99644.00;;;1.14;89.04
49102;BME280;34913;47.520;19.186;2022-11-20T00:35:26;99629.31;;;1.11;88.59
49102;BME280;34913;47.520;19.186;2022-11-20T00:37:51;99635.69;;;1.06;89.48
49102;BME280;34913;47.520;19.186;2022-11-20T00:40:17;99638.53;;;1.01;89.55
49102;BME280;34913;47.520;19.186;2022-11-20T00:42:42;99646.06;;;1.07;89.81
49102;BME280;34913;47.520;19.186;2022-11-20T00:45:08;99638.59;;;1.17;89.71
49102;BME280;34913;47.520;19.186;2022-11-20T00:47:33;99635.69;;;1.23;89.52
49102;BME280;34913;47.520;19.186;2022-11-20T00:49:58;99635.78;;;1.22;88.74
49102;BME280;34913;47.520;19.186;2022-11-20T00:52:24;99632.44;;;1.18;89.00
49102;BME280;34913;47.520;19.186;2022-11-20T00:54:49;99629.25;;;1.13;89.02
49102;BME280;34913;47.520;19.186;2022-11-20T00:57:15;99615.41;;;1.11;89.48
49102;BME280;34913;47.520;19.186;2022-11-20T00:59:40;99624.78;;;1.15;89.60
49102;BME280;34913;47.520;19.186;2022-11-20T01:02:05;99621.22;;;1.16;89.76
49102;BME280;34913;47.520;19.186;2022-11-20T01:04:31;99618.78;;;1.13;89.60
49102;BME280;34913;47.520;19.186;2022-11-20T01:06:56;99621.31;;;1.15;89.77
49102;BME280;34913;47.520;19.186;2022-11-20T01:09:21;99622.72;;;1.22;89.83
49102;BME280;34913;47.520;19.186;2022-11-20T01:11:47;99620.94;;;1.22;89.58
49102;BME280;34913;47.520;19.186;2022-11-20T01:14:16;99622.00;;;1.18;89.44
49102;BME280;34913;47.520;19.186;2022-11-20T01:16:44;99627.16;;;1.20;89.75
49102;BME280;34913;47.520;19.186;2022-11-20T01:19:13;99628.03;;;1.20;89.95
49102;BME280;34913;47.520;19.186;2022-11-20T01:21:41;99628.88;;;1.21;90.37
49102;BME280;34913;47.520;19.186;2022-11-20T01:24:08;99623.09;;;1.14;91.02
49102;BME280;34913;47.520;19.186;2022-11-20T01:26:37;99616.31;;;1.10;91.61
49102;BME280;34913;47.520;19.186;2022-11-20T01:29:04;99615.34;;;1.13;92.05
49102;BME280;34913;47.520;19.186;2022-11-20T01:31:32;99620.47;;;1.14;92.71
49102;BME280;34913;47.520;19.186;2022-11-20T01:34:00;99616.72;;;1.20;92.83
49102;BME280;34913;47.520;19.186;2022-11-20T01:36:27;99625.00;;;1.10;92.93
49102;BME280;34913;47.520;19.186;2022-11-20T01:38:55;99608.47;;;1.10;93.46
49102;BME280;34913;47.520;19.186;2022-11-20T01:41:21;99595.41;;;1.10;93.74
49102;BME280;34913;47.520;19.186;2022-11-20T01:44:06;99593.97;;;1.04;94.12
49102;BME280;34913;47.520;19.186;2022-11-20T01:46:35;99603.72;;;1.01;94.50
49102;BME280;34913;47.520;19.186;2022-11-20T01:49:18;99603.31;;;1.08;94.35
49102;BME280;34913;47.520;19.186;2022-11-20T01:51:55;99602.09;;;1.16;94.82
49102;BME280;34913;47.520;19.186;2022-11-20T01:54:27;99602.56;;;1.24;94.31
49102;BME280;34913;47.520;19.186;2022-11-20T01:56:56;99604.94;;;1.28;94.41
49102;BME280;34913;47.520;19.186;2022-11-20T01:59:24;99592.19;;;1.22;94.31
49102;BME280;34913;47.520;19.186;2022-11-20T02:01:50;99590.03;;;1.13;94.31
49102;BME280;34913;47.520;19.186;2022-11-20T02:04:16;99593.31;;;1.17;94.96
49102;BME280;34913;47.520;19.186;2022-11-20T02:06:50;99585.19;;;1.05;95.39
49102;BME280;34913;47.520;19.186;2022-11-20T02:09:17;99584.19;;;1.08;95.62
49102;BME280;34913;47.520;19.186;2022-11-20T02:11:42;99599.88;;;1.08;95.63
49102;BME280;34913;47.520;19.186;2022-11-20T02:14:09;99608.09;;;1.00;96.02
49102;BME280;34913;47.520;19.186;2022-11-20T02:16:41;99611.53;;;1.01;96.31
49102;BME280;34913;47.520;19.186;2022-11-20T02:19:17;99601.94;;;1.01;96.21
49102;BME280;34913;47.520;19.186;2022-11-20T02:22:31;99609.56;;;1.06;96.07
49102;BME280;34913;47.520;19.186;2022-11-20T02:24:55;99602.66;;;1.05;96.29
49102;BME280;34913;47.520;19.186;2022-11-20T02:27:22;99605.81;;;1.11;96.14
49102;BME280;34913;47.520;19.186;2022-11-20T02:29:53;99601.56;;;1.09;96.33
49102;BME280;34913;47.520;19.186;2022-11-20T02:32:26;99604.09;;;1.10;96.21
49102;BME280;34913;47.520;19.186;2022-11-20T02:34:52;99593.72;;;1.09;96.32
49102;BME280;34913;47.520;19.186;2022-11-20T02:37:19;99587.03;;;1.03;96.22
49102;BME280;34913;47.520;19.186;2022-11-20T02:39:49;99584.06;;;1.11;96.60
49102;BME280;34913;47.520;19.186;2022-11-20T02:42:15;99574.50;;;1.10;96.53
49102;BME280;34913;47.520;19.186;2022-11-20T02:44:41;99575.34;;;1.10;96.08
49102;BME280;34913;47.520;19.186;2022-11-20T02:47:06;99574.56;;;1.08;96.29
49102;BME280;34913;47.520;19.186;2022-11-20T02:49:32;99578.75;;;1.13;96.15
49102;BME280;34913;47.520;19.186;2022-11-20T02:51:58;99577.06;;;1.11;95.99
49102;BME280;34913;47.520;19.186;2022-11-20T02:54:23;99573.44;;;1.14;96.04
49102;BME280;34913;47.520;19.186;2022-11-20T02:56:49;99578.25;;;1.22;96.28
49102;BME280;34913;47.520;19.186;2022-11-20T02:59:14;99573.31;;;1.33;96.14
49102;BME280;34913;47.520;19.186;2022-11-20T03:01:40;99569.03;;;1.32;95.07
49102;BME280;34913;47.520;19.186;2022-11-20T03:04:07;99560.03;;;1.37;95.45
49102;BME280;34913;47.520;19.186;2022-11-20T03:06:32;99549.66;;;1.36;94.97
49102;BME280;34913;47.520;19.186;2022-11-20T03:08:57;99555.88;;;1.33;94.34
49102;BME280;34913;47.520;19.186;2022-11-20T03:11:23;99560.09;;;1.36;94.97
49102;BME280;34913;47.520;19.186;2022-11-20T03:13:48;99564.16;;;1.42;94.70
49102;BME280;34913;47.520;19.186;2022-11-20T03:16:17;99558.59;;;1.48;94.81
49102;BME280;34913;47.520;19.186;2022-11-20T03:18:44;99564.53;;;1.51;94.48
49102;BME280;34913;47.520;19.186;2022-11-20T03:21:10;99560.47;;;1.46;93.74
49102;BME280;34913;47.520;19.186;2022-11-20T03:23:37;99573.31;;;1.50;94.07
49102;BME280;34913;47.520;19.186;2022-11-20T03:26:17;99577.84;;;1.47;93.41
49102;BME280;34913;47.520;19.186;2022-11-20T03:28:55;99575.06;;;1.50;93.34
49102;BME280;34913;47.520;19.186;2022-11-20T03:31:25;99586.91;;;1.57;93.44
49102;BME280;34913;47.520;19.186;2022-11-20T03:33:51;99589.19;;;1.63;93.24
49102;BME280;34913;47.520;19.186;2022-11-20T03:36:18;99581.13;;;1.67;92.74
49102;BME280;34913;47.520;19.186;2022-11-20T03:38:44;99571.50;;;1.68;92.60
49102;BME280;34913;47.520;19.186;2022-11-20T03:41:12;99576.03;;;1.64;92.51
49102;BME280;34913;47.520;19.186;2022-11-20T03:43:39;99574.97;;;1.68;92.73
49102;BME280;34913;47.520;19.186;2022-11-20T03:46:06;99566.66;;;1.60;92.33
49102;BME280;34913;47.520;19.186;2022-11-20T03:48:32;99558.53;;;1.49;92.37
49102;BME280;34913;47.520;19.186;2022-11-20T03:51:34;99560.47;;;1.46;93.22
49102;BME280;34913;47.520;19.186;2022-11-20T03:54:02;99555.56;;;1.39;93.39
49102;BME280;34913;47.520;19.186;2022-11-20T03:56:30;99553.78;;;1.40;93.37
49102;BME280;34913;47.520;19.186;2022-11-20T03:58:56;99544.72;;;1.30;93.88
49102;BME280;34913;47.520;19.186;2022-11-20T04:01:26;99549.47;;;1.39;94.01
49102;BME280;34913;47.520;19.186;2022-11-20T04:03:53;99551.47;;;1.51;93.73
49102;BME280;34913;47.520;19.186;2022-11-20T04:06:21;99556.44;;;1.56;93.64
49102;BME280;34913;47.520;19.186;2022-11-20T04:08:48;99557.28;;;1.56;92.92
49102;BME280;34913;47.520;19.186;2022-11-20T04:11:22;99570.03;;;1.62;92.44
49102;BME280;34913;47.520;19.186;2022-11-20T04:13:56;99563.38;;;1.73;92.58
49102;BME280;34913;47.520;19.186;2022-11-20T04:16:24;99562.94;;;1.64;91.56
49102;BME280;34913;47.520;19.186;2022-11-20T04:18:57;99554.22;;;1.48;92.00
49102;BME280;34913;47.520;19.186;2022-11-20T04:21:23;99548.84;;;1.34;92.72
49102;BME280;34913;47.520;19.186;2022-11-20T04:23:50;99530.28;;;1.23;92.99
49102;BME280;34913;47.520;19.186;2022-11-20T04:26:16;99535.59;;;1.21;93.02
49102;BME280;34913;47.520;19.186;2022-11-20T04:28:41;99525.53;;;1.14;92.96
49102;BME280;34913;47.520;19.186;2022-11-20T04:31:21;99535.16;;;1.13;93.80
49102;BME280;34913;47.520;19.186;2022-11-20T04:33:47;99531.13;;;1.23;94.10
49102;BME280;34913;47.520;19.186;2022-11-20T04:36:15;99527.94;;;1.34;93.76
49102;BME280;34913;47.520;19.186;2022-11-20T04:38:41;99533.03;;;1.37;93.22
49102;BME280;34913;47.520;19.186;2022-11-20T04:41:10;99545.41;;;1.33;92.90
49102;BME280;34913;47.520;19.186;2022-11-20T04:43:39;99534.03;;;1.34;92.97
49102;BME280;34913;47.520;19.186;2022-11-20T04:46:04;99539.34;;;1.33;92.46
49102;BME280;34913;47.520;19.186;2022-11-20T04:48:30;99539.28;;;1.34;92.62
49102;BME280;34913;47.520;19.186;2022-11-20T04:50:55;99543.09;;;1.45;92.48
49102;BME280;34913;47.520;19.186;2022-11-20T04:53:22;99523.34;;;1.39;92.14
49102;BME280;34913;47.520;19.186;2022-11-20T04:55:47;99508.69;;;1.19;92.49
49102;BME280;34913;47.520;19.186;2022-11-20T04:58:13;99505.84;;;1.24;93.18
49102;BME280;34913;47.520;19.186;2022-11-20T05:00:39;99505.91;;;1.22;92.95
49102;BME280;34913;47.520;19.186;2022-11-20T05:03:05;99505.59;;;1.28;93.31
49102;BME280;34913;47.520;19.186;2022-11-20T05:05:30;99509.72;;;1.32;92.80
49102;BME280;34913;47.520;19.186;2022-11-20T05:07:57;99508.22;;;1.28;92.47
49102;BME280;34913;47.520;19.186;2022-11-20T05:10:23;99502.78;;;1.16;92.58
49102;BME280;34913;47.520;19.186;2022-11-20T05:12:49;99500.69;;;1.22;92.87
49102;BME280;34913;47.520;19.186;2022-11-20T05:15:14;99511.91;;;1.24;92.68
49102;BME280;34913;47.520;19.186;2022-11-20T05:17:40;99519.03;;;1.38;92.29
49102;BME280;34913;47.520;19.186;2022-11-20T05:20:05;99518.63;;;1.46;92.43
49102;BME280;34913;47.520;19.186;2022-11-20T05:22:31;99507.84;;;1.52;92.13
49102;BME280;34913;47.520;19.186;2022-11-20T05:24:56;99508.00;;;1.49;91.44
49102;BME280;34913;47.520;19.186;2022-11-20T05:27:23;99505.31;;;1.50;91.23
49102;BME280;34913;47.520;19.186;2022-11-20T05:29:48;99492.69;;;1.58;91.17
49102;BME280;34913;47.520;19.186;2022-11-20T05:32:13;99475.13;;;1.60;91.10
49102;BME280;34913;47.520;19.186;2022-11-20T05:34:39;99478.31;;;1.65;91.06
49102;BME280;34913;47.520;19.186;2022-11-20T05:37:04;99468.78;;;1.64;90.62
49102;BME280;34913;47.520;19.186;2022-11-20T05:39:30;99466.25;;;1.63;90.16
49102;BME280;34913;47.520;19.186;2022-11-20T05:41:55;99467.84;;;1.65;90.35
49102;BME280;34913;47.520;19.186;2022-11-20T05:44:53;99474.00;;;1.64;90.12
49102;BME280;34913;47.520;19.186;2022-11-20T05:47:18;99491.66;;;1.77;89.93
49102;BME280;34913;47.520;19.186;2022-11-20T05:49:43;99499.25;;;1.81;90.26
49102;BME280;34913;47.520;19.186;2022-11-20T05:52:09;99507.53;;;1.89;89.64
49102;BME280;34913;47.520;19.186;2022-11-20T05:54:34;99499.84;;;1.86;89.96
49102;BME280;34913;47.520;19.186;2022-11-20T05:57:00;99505.09;;;1.86;89.85
49102;BME280;34913;47.520;19.186;2022-11-20T05:59:25;99493.88;;;1.84;89.86
49102;BME280;34913;47.520;19.186;2022-11-20T06:01:51;99500.53;;;1.74;89.75
49102;BME280;34913;47.520;19.186;2022-11-20T06:04:16;99515.22;;;1.77;89.93
49102;BME280;34913;47.520;19.186;2022-11-20T06:06:41;99527.72;;;1.87;89.84
49102;BME280;34913;47.520;19.186;2022-11-20T06:09:07;99528.03;;;1.81;89.89
49102;BME280;34913;47.520;19.186;2022-11-20T06:11:32;99511.31;;;1.68;89.64
49102;BME280;34913;47.520;19.186;2022-11-20T06:13:58;99511.88;;;1.57;90.66
49102;BME280;34913;47.520;19.186;2022-11-20T06:16:23;99509.34;;;1.56;91.13
49102;BME280;34913;47.520;19.186;2022-11-20T06:18:48;99529.13;;;1.61;91.17
49102;BME280;34913;47.520;19.186;2022-11-20T06:21:23;99524.97;;;1.73;90.97
49102;BME280;34913;47.520;19.186;2022-11-20T06:23:50;99506.34;;;1.79;90.73
49102;BME280;34913;47.520;19.186;2022-11-20T06:26:24;99502.28;;;1.74;90.66
49102;BME280;34913;47.520;19.186;2022-11-20T06:28:50;99506.34;;;1.79;90.92
49102;BME280;34913;47.520;19.186;2022-11-20T06:31:18;99502.22;;;1.75;90.97
49102;BME280;34913;47.520;19.186;2022-11-20T06:33:44;99515.03;;;1.64;90.66
49102;BME280;34913;47.520;19.186;2022-11-20T06:36:11;99523.66;;;1.66;91.46
49102;BME280;34913;47.520;19.186;2022-11-20T06:38:38;99539.19;;;1.85;90.65
49102;BME280;34913;47.520;19.186;2022-11-20T06:41:05;99549.75;;;1.83;90.39
49102;BME280;34913;47.520;19.186;2022-11-20T06:43:30;99551.59;;;1.81;91.44
49102;BME280;34913;47.520;19.186;2022-11-20T06:45:57;99553.34;;;1.81;91.19
49102;BME280;34913;47.520;19.186;2022-11-20T06:48:23;99553.78;;;1.89;91.20
49102;BME280;34913;47.520;19.186;2022-11-20T06:50:49;99571.63;;;1.98;91.20
49102;BME280;34913;47.520;19.186;2022-11-20T06:53:15;99567.38;;;1.95;91.06
49102;BME280;34913;47.520;19.186;2022-11-20T06:55:47;99571.38;;;2.03;90.75
49102;BME280;34913;47.520;19.186;2022-11-20T06:58:14;99561.81;;;2.02;90.77
49102;BME280;34913;47.520;19.186;2022-11-20T07:00:40;99555.84;;;2.00;90.91
49102;BME280;34913;47.520;19.186;2022-11-20T07:03:07;99559.53;;;1.95;90.68
49102;BME280;34913;47.520;19.186;2022-11-20T07:05:34;99536.06;;;1.94;90.96
49102;BME280;34913;47.520;19.186;2022-11-20T07:07:59;99528.22;;;1.94;90.99
49102;BME280;34913;47.520;19.186;2022-11-20T07:10:26;99532.00;;;1.88;90.93
49102;BME280;34913;47.520;19.186;2022-11-20T07:12:52;99537.94;;;1.92;90.97
49102;BME280;34913;47.520;19.186;2022-11-20T07:15:19;99542.25;;;2.09;90.79
49102;BME280;34913;47.520;19.186;2022-11-20T07:17:44;99530.50;;;2.16;90.55
49102;BME280;34913;47.520;19.186;2022-11-20T07:20:11;99529.66;;;2.15;89.98
49102;BME280;34913;47.520;19.186;2022-11-20T07:22:37;99538.03;;;2.22;89.55
49102;BME280;34913;47.520;19.186;2022-11-20T07:25:03;99553.75;;;2.22;88.86
49102;BME280;34913;47.520;19.186;2022-11-20T07:27:29;99554.50;;;2.24;88.07
49102;BME280;34913;47.520;19.186;2022-11-20T07:29:55;99566.00;;;2.21;88.98
49102;BME280;34913;47.520;19.186;2022-11-20T07:32:20;99573.41;;;2.29;89.72
49102;BME280;34913;47.520;19.186;2022-11-20T07:34:46;99579.56;;;2.28;90.98
49102;BME280;34913;47.520;19.186;2022-11-20T07:37:11;99579.00;;;2.23;90.81
49102;BME280;34913;47.520;19.186;2022-11-20T07:39:37;99571.13;;;2.23;91.55
49102;BME280;34913;47.520;19.186;2022-11-20T07:42:02;99581.50;;;2.24;92.03
49102;BME280;34913;47.520;19.186;2022-11-20T07:44:28;99579.31;;;2.17;92.31
49102;BME280;34913;47.520;19.186;2022-11-20T07:46:53;99581.94;;;2.17;92.60
49102;BME280;34913;47.520;19.186;2022-11-20T07:49:18;99577.44;;;2.19;93.37
49102;BME280;34913;47.520;19.186;2022-11-20T07:51:44;99579.66;;;2.11;92.71
49102;BME280;34913;47.520;19.186;2022-11-20T07:54:09;99584.63;;;2.00;91.54
49102;BME280;34913;47.520;19.186;2022-11-20T07:56:34;99580.47;;;1.95;93.28
49102;BME280;34913;47.520;19.186;2022-11-20T07:59:00;99580.06;;;2.03;94.01
49102;BME280;34913;47.520;19.186;2022-11-20T08:01:25;99568.50;;;2.07;94.08
49102;BME280;34913;47.520;19.186;2022-11-20T08:03:51;99568.09;;;2.15;94.12
49102;BME280;34913;47.520;19.186;2022-11-20T08:06:16;99560.31;;;2.13;92.86
49102;BME280;34913;47.520;19.186;2022-11-20T08:08:42;99561.59;;;2.22;93.54
49102;BME280;34913;47.520;19.186;2022-11-20T08:11:08;99553.66;;;2.23;93.98
49102;BME280;34913;47.520;19.186;2022-11-20T08:13:52;99557.09;;;2.24;93.92
49102;BME280;34913;47.520;19.186;2022-11-20T08:16:35;99568.50;;;2.23;94.22
49102;BME280;34913;47.520;19.186;2022-11-20T08:19:01;99571.97;;;2.23;93.13
49102;BME280;34913;47.520;19.186;2022-11-20T08:21:26;99565.72;;;2.26;94.24
49102;BME280;34913;47.520;19.186;2022-11-20T08:23:52;99569.94;;;2.29;92.96
49102;BME280;34913;47.520;19.186;2022-11-20T08:26:17;99566.56;;;2.27;93.21
49102;BME280;34913;47.520;19.186;2022-11-20T08:28:43;99569.44;;;2.22;94.85
49102;BME280;34913;47.520;19.186;2022-11-20T08:31:09;99564.53;;;2.16;93.59
49102;BME280;34913;47.520;19.186;2022-11-20T08:33:35;99564.28;;;2.20;94.75
49102;BME280;34913;47.520;19.186;2022-11-20T08:36:04;99547.81;;;2.34;95.12
49102;BME280;34913;47.520;19.186;2022-11-20T08:38:30;99545.25;;;2.48;94.19
49102;BME280;34913;47.520;19.186;2022-11-20T08:40:57;99549.88;;;2.59;94.35
49102;BME280;34913;47.520;19.186;2022-11-20T08:43:41;99559.31;;;2.77;93.45
49102;BME280;34913;47.520;19.186;2022-11-20T08:46:07;99556.75;;;2.76;90.94
49102;BME280;34913;47.520;19.186;2022-11-20T08:48:32;99551.38;;;2.79;91.43
49102;BME280;34913;47.520;19.186;2022-11-20T08:50:58;99557.84;;;2.88;92.20
49102;BME280;34913;47.520;19.186;2022-11-20T08:53:24;99548.13;;;2.90;91.69
49102;BME280;34913;47.520;19.186;2022-11-20T08:55:50;99559.44;;;2.90;91.85
49102;BME280;34913;47.520;19.186;2022-11-20T08:58:15;99552.88;;;2.83;92.38
49102;BME280;34913;47.520;19.186;2022-11-20T09:00:41;99561.97;;;2.92;93.35
49102;BME280;34913;47.520;19.186;2022-11-20T09:03:06;99569.97;;;3.04;92.27
49102;BME280;34913;47.520;19.186;2022-11-20T09:05:31;99577.28;;;3.14;92.07
49102;BME280;34913;47.520;19.186;2022-11-20T09:07:57;99575.81;;;3.24;91.57
49102;BME280;34913;47.520;19.186;2022-11-20T09:10:23;99585.00;;;3.31;90.44
49102;BME280;34913;47.520;19.186;2022-11-20T09:12:49;99572.94;;;3.43;89.30
49102;BME280;34913;47.520;19.186;2022-11-20T09:15:14;99580.47;;;3.49;88.10
49102;BME280;34913;47.520;19.186;2022-11-20T09:17:40;99577.53;;;3.39;87.34
49102;BME280;34913;47.520;19.186;2022-11-20T09:20:05;99580.06;;;3.26;88.48
49102;BME280;34913;47.520;19.186;2022-11-20T09:22:31;99587.16;;;3.24;89.33
49102;BME280;34913;47.520;19.186;2022-11-20T09:24:56;99600.84;;;3.29;89.72
49102;BME280;34913;47.520;19.186;2022-11-20T09:27:22;99601.91;;;3.41;89.11
49102;BME280;34913;47.520;19.186;2022-11-20T09:29:47;99595.44;;;3.47;89.38
49102;BME280;34913;47.520;19.186;2022-11-20T09:32:13;99594.03;;;3.55;89.64
49102;BME280;34913;47.520;19.186;2022-11-20T09:34:38;99589.72;;;3.54;87.86
49102;BME280;34913;47.520;19.186;2022-11-20T09:37:03;99572.28;;;3.53;88.55
49102;BME280;34913;47.520;19.186;2022-11-20T09:39:29;99563.03;;;3.48;87.80
49102;BME280;34913;47.520;19.186;2022-11-20T09:47:39;99569.38;;;3.44;85.67
49102;BME280;34913;47.520;19.186;2022-11-20T09:50:30;99557.78;;;3.62;86.38
49102;BME280;34913;47.520;19.186;2022-11-20T09:55:41;99556.19;;;3.74;85.65
49102;BME280;34913;47.520;19.186;2022-11-20T09:58:15;99556.09;;;3.75;84.98
49102;BME280;34913;47.520;19.186;2022-11-20T10:00:42;99552.91;;;3.70;85.43
49102;BME280;34913;47.520;19.186;2022-11-20T10:03:14;99556.66;;;3.80;86.95
49102;BME280;34913;47.520;19.186;2022-11-20T10:05:45;99551.78;;;3.88;86.75
49102;BME280;34913;47.520;19.186;2022-11-20T10:08:19;99554.38;;;4.03;85.38
49102;BME280;34913;47.520;19.186;2022-11-20T10:10:50;99546.59;;;4.01;83.99
49102;BME280;34913;47.520;19.186;2022-11-20T10:16:45;99543.72;;;4.18;82.49
49102;BME280;34913;47.520;19.186;2022-11-20T10:19:30;99533.91;;;4.08;82.90
49102;BME280;34913;47.520;19.186;2022-11-20T10:25:05;99513.44;;;4.27;83.66
49102;BME280;34913;47.520;19.186;2022-11-20T10:30:41;99510.44;;;4.46;82.27
49102;BME280;34913;47.520;19.186;2022-11-20T10:33:17;99512.19;;;4.60;82.44
49102;BME280;34913;47.520;19.186;2022-11-20T10:36:15;99507.38;;;4.79;82.18
49102;BME280;34913;47.520;19.186;2022-11-20T10:38:49;99506.69;;;4.90;80.60
49102;BME280;34913;47.520;19.186;2022-11-20T10:41:27;99511.00;;;4.91;79.33
49102;BME280;34913;47.520;19.186;2022-11-20T10:44:08;99511.09;;;5.02;78.74
49102;BME280;34913;47.520;19.186;2022-11-20T10:46:44;99519.50;;;4.94;77.40
49102;BME280;34913;47.520;19.186;2022-11-20T10:49:18;99527.94;;;4.99;79.27
49102;BME280;34913;47.520;19.186;2022-11-20T10:51:48;99525.94;;;4.90;79.94
49102;BME280;34913;47.520;19.186;2022-11-20T11:00:17;99515.25;;;4.79;80.67
49102;BME280;34913;47.520;19.186;2022-11-20T11:02:53;99521.50;;;4.91;79.14
49102;BME280;34913;47.520;19.186;2022-11-20T11:07:46;99524.78;;;5.20;79.43
49102;BME280;34913;47.520;19.186;2022-11-20T11:10:18;99527.00;;;5.26;78.50
49102;BME280;34913;47.520;19.186;2022-11-20T11:12:45;99538.03;;;5.18;78.69
49102;BME280;34913;47.520;19.186;2022-11-20T11:15:25;99538.47;;;5.25;79.27
49102;BME280;34913;47.520;19.186;2022-11-20T11:17:50;99540.19;;;5.39;79.47
49102;BME280;34913;47.520;19.186;2022-11-20T11:20:24;99535.22;;;5.34;79.63
49102;BME280;34913;47.520;19.186;2022-11-20T11:22:55;99539.31;;;5.25;79.00
49102;BME280;34913;47.520;19.186;2022-11-20T11:25:35;99532.81;;;5.31;81.17
49102;BME280;34913;47.520;19.186;2022-11-20T11:28:24;99529.09;;;5.21;79.64
49102;BME280;34913;47.520;19.186;2022-11-20T11:30:51;99523.75;;;5.22;80.25
49102;BME280;34913;47.520;19.186;2022-11-20T11:35:53;99524.72;;;5.21;80.00
49102;BME280;34913;47.520;19.186;2022-11-20T11:38:42;99520.28;;;5.22;80.84
49102;BME280;34913;47.520;19.186;2022-11-20T11:41:20;99506.28;;;5.34;81.29
49102;BME280;34913;47.520;19.186;2022-11-20T11:43:53;99499.88;;;5.38;80.79
49102;BME280;34913;47.520;19.186;2022-11-20T11:46:39;99508.38;;;5.42;80.93
49102;BME280;34913;47.520;19.186;2022-11-20T11:49:14;99515.00;;;5.47;81.26
49102;BME280;34913;47.520;19.186;2022-11-20T11:54:42;99501.75;;;5.62;81.55
49102;BME280;34913;47.520;19.186;2022-11-20T12:02:34;99503.72;;;5.58;80.79
49102;BME280;34913;47.520;19.186;2022-11-20T12:10:20;99503.84;;;5.56;80.16
49102;BME280;34913;47.520;19.186;2022-11-20T12:12:51;99504.38;;;5.62;81.26
49102;BME280;34913;47.520;19.186;2022-11-20T12:15:26;99504.16;;;5.65;81.59
49102;BME280;34913;47.520;19.186;2022-11-20T12:17:53;99499.84;;;5.64;81.12
49102;BME280;34913;47.520;19.186;2022-11-20T12:20:22;99498.56;;;5.69;82.10
49102;BME280;34913;47.520;19.186;2022-11-20T12:23:05;99486.75;;;5.75;80.86
49102;BME280;34913;47.520;19.186;2022-11-20T12:25:35;99485.75;;;5.88;81.02
49102;BME280;34913;47.520;19.186;2022-11-20T12:28:27;99474.69;;;6.09;79.88
49102;BME280;34913;47.520;19.186;2022-11-20T12:39:28;99469.47;;;6.20;79.70
49102;BME280;34913;47.520;19.186;2022-11-20T12:42:09;99481.91;;;6.18;77.78
49102;BME280;34913;47.520;19.186;2022-11-20T12:53:12;99501.63;;;6.12;78.47
49102;BME280;34913;47.520;19.186;2022-11-20T13:01:24;99494.31;;;6.29;79.27
49102;BME280;34913;47.520;19.186;2022-11-20T13:07:02;99493.13;;;6.33;78.04
49102;BME280;34913;47.520;19.186;2022-11-20T13:09:29;99494.06;;;6.32;78.85
49102;BME280;34913;47.520;19.186;2022-11-20T13:20:15;99495.94;;;6.42;78.53
49102;BME280;34913;47.520;19.186;2022-11-20T13:22:47;99491.09;;;6.36;78.86
49102;BME280;34913;47.520;19.186;2022-11-20T13:25:35;99494.97;;;6.43;77.90
49102;BME280;34913;47.520;19.186;2022-11-20T13:28:27;99494.75;;;6.47;77.56
49102;BME280;34913;47.520;19.186;2022-11-20T13:30:54;99485.94;;;6.35;77.59
49102;BME280;34913;47.520;19.186;2022-11-20T13:33:29;99493.13;;;6.33;78.12
49102;BME280;34913;47.520;19.186;2022-11-20T13:36:20;99488.34;;;6.38;77.86
49102;BME280;34913;47.520;19.186;2022-11-20T13:38:51;99485.72;;;6.38;77.71
49102;BME280;34913;47.520;19.186;2022-11-20T13:41:30;99478.44;;;6.41;78.13
49102;BME280;34913;47.520;19.186;2022-11-20T13:46:50;99466.31;;;6.39;78.19
49102;BME280;34913;47.520;19.186;2022-11-20T13:51:49;99462.41;;;6.21;78.83
49102;BME280;34913;47.520;19.186;2022-11-20T13:57:14;99458.53;;;6.13;
49102;BME280;34913;47.520;19.186;2022-11-20T14:02:15;99457.34;;;5.94;79.87
49102;BME280;34913;47.520;19.186;2022-11-20T14:04:53;99455.44;;;5.83;80.82
49102;BME280;34913;47.520;19.186;2022-11-20T14:07:21;99453.44;;;5.86;81.68
49102;BME280;34913;47.520;19.186;2022-11-20T14:09:54;99448.16;;;5.86;81.94
49102;BME280;34913;47.520;19.186;2022-11-20T14:12:28;99451.56;;;5.76;81.68
49102;BME280;34913;47.520;19.186;2022-11-20T14:14:54;99450.50;;;5.78;82.00
49102;BME280;34913;47.520;19.186;2022-11-20T14:17:22;99446.41;;;5.74;81.94
49102;BME280;34913;47.520;19.186;2022-11-20T14:19:50;99449.13;;;5.85;82.21
49102;BME280;34913;47.520;19.186;2022-11-20T14:22:23;99450.50;;;5.78;82.75
49102;BME280;34913;47.520;19.186;2022-11-20T14:25:22;99446.19;;;5.77;82.98
49102;BME280;34913;47.520;19.186;2022-11-20T14:28:02;99459.69;;;5.73;83.53
49102;BME280;34913;47.520;19.186;2022-11-20T14:30:46;99454.00;;;5.66;84.18
49102;BME280;34913;47.520;19.186;2022-11-20T14:33:14;99462.03;;;5.65;84.43
49102;BME280;34913;47.520;19.186;2022-11-20T14:35:57;99473.41;;;5.52;85.91
49102;BME280;34913;47.520;19.186;2022-11-20T14:38:26;99473.84;;;5.33;87.21